Time;durP1;ratioP1;P1;durP2;ratioP2;P2;SDS_P1;SDS_P2;PMS_P1;PMS_P2;Temp;Humidity;BMP_temperature;BMP_pressure;BME280_temperature;BME280_humidity;BME280_pressure;Samples;Min_cycle;Max_cycle;Signal;HPM_P1;HPM_P2
2021/06/03 00:00:31;;;;;;;4.80;2.87;;;;;;;;;;5019009;28;20026;-66
2021/06/03 00:02:56;;;;;;;10.90;2.87;;;;;;;;;;5029245;28;20054;-65
2021/06/03 00:05:26;;;;;;;4.77;2.67;;;;;;;;;;5036466;28;20040;-65
2021/06/03 00:07:52;;;;;;;6.37;2.97;;;;;;;;;;5030376;28;20067;-65
2021/06/03 00:10:18;;;;;;;7.17;2.90;;;;;;;;;;5030753;28;20057;-66
2021/06/03 00:12:44;;;;;;;4.97;2.70;;;;;;;;;;5027546;28;20028;-65
2021/06/03 00:15:11;;;;;;;4.40;2.40;;;;;;;;;;5031305;28;20025;-66
2021/06/03 00:17:36;;;;;;;5.20;2.43;;;;;;;;;;5022110;28;20100;-65
2021/06/03 00:20:03;;;;;;;4.93;2.53;;;;;;;;;;5020850;28;20110;-65
2021/06/03 00:22:28;;;;;;;5.50;2.80;;;;;;;;;;5022966;28;20442;-66
2021/06/03 00:24:54;;;;;;;5.80;2.90;;;;;;;;;;5023520;28;20030;-65
2021/06/03 00:27:19;;;;;;;6.27;3.10;;;;;;;;;;5029329;28;20039;-65
2021/06/03 00:29:44;;;;;;;6.53;3.00;;;;;;;;;;5028166;28;20036;-65
2021/06/03 00:32:10;;;;;;;5.60;2.80;;;;;;;;;;5036482;28;20079;-65
2021/06/03 00:34:35;;;;;;;4.60;2.73;;;;;;;;;;5030260;28;20431;-66
2021/06/03 00:37:00;;;;;;;6.20;3.00;;;;;;;;;;5022008;28;20029;-65
2021/06/03 00:39:26;;;;;;;5.07;2.80;;;;;;;;;;5030727;28;20025;-65
2021/06/03 00:41:52;;;;;;;4.57;2.70;;;;;;;;;;5030620;28;20029;-66
2021/06/03 00:44:17;;;;;;;6.53;3.00;;;;;;;;;;5026795;28;20282;-66
2021/06/03 00:46:43;;;;;;;7.07;3.40;;;;;;;;;;5031844;28;20029;-66
2021/06/03 00:49:08;;;;;;;4.83;2.77;;;;;;;;;;5026216;28;20385;-66
2021/06/03 00:51:33;;;;;;;4.83;2.67;;;;;;;;;;5028506;28;20062;-66
2021/06/03 00:53:59;;;;;;;5.10;2.80;;;;;;;;;;5023541;28;20102;-66
2021/06/03 00:56:24;;;;;;;5.60;2.80;;;;;;;;;;5022040;28;20474;-66
2021/06/03 00:58:49;;;;;;;6.83;3.30;;;;;;;;;;5023374;28;20564;-66
2021/06/03 01:01:15;;;;;;;8.93;3.40;;;;;;;;;;5018641;28;20030;-66
2021/06/03 01:03:40;;;;;;;12.10;3.63;;;;;;;;;;5026673;28;20057;-65
2021/06/03 01:06:07;;;;;;;6.60;3.47;;;;;;;;;;5030663;28;20473;-66
2021/06/03 01:08:43;;;;;;;7.33;3.73;;;;;;;;;;5030894;28;20021;-66
2021/06/03 01:11:18;;;;;;;6.20;3.17;;;;;;;;;;5030552;28;20033;-66
2021/06/03 01:14:21;;;;;;;6.00;3.37;;;;;;;;;;5011039;28;20095;-66
2021/06/03 01:16:48;;;;;;;7.63;3.10;;;;;;;;;;4974681;28;20031;-66
2021/06/03 01:19:20;;;;;;;8.67;3.33;;;;;;;;;;4970893;28;20023;-66
2021/06/03 01:21:53;;;;;;;6.63;3.53;;;;;;;;;;4963167;28;20031;-65
2021/06/03 01:24:25;;;;;;;6.60;3.23;;;;;;;;;;4970182;28;20045;-66
2021/06/03 01:26:53;;;;;;;7.10;3.40;;;;;;;;;;4974398;28;20054;-66
2021/06/03 01:29:18;;;;;;;6.27;3.33;;;;;;;;;;4965180;28;20118;-66
2021/06/03 01:31:45;;;;;;;6.57;3.37;;;;;;;;;;4976026;28;20181;-66
2021/06/03 01:34:11;;;;;;;5.47;3.37;;;;;;;;;;4974971;28;20049;-66
2021/06/03 01:36:36;;;;;;;7.23;3.60;;;;;;;;;;4967794;28;20023;-66
2021/06/03 01:39:04;;;;;;;6.13;3.10;;;;;;;;;;4976158;28;20034;-66
2021/06/03 01:41:30;;;;;;;4.80;2.90;;;;;;;;;;4975645;28;20058;-66
2021/06/03 01:43:55;;;;;;;5.90;3.47;;;;;;;;;;4970598;28;20110;-66
2021/06/03 01:46:21;;;;;;;6.37;3.30;;;;;;;;;;4978085;28;20030;-65
2021/06/03 01:48:48;;;;;;;7.70;3.57;;;;;;;;;;5043789;28;20068;-66
2021/06/03 01:51:15;;;;;;;7.03;3.77;;;;;;;;;;5046620;28;20068;-66
2021/06/03 01:53:40;;;;;;;7.37;3.70;;;;;;;;;;5023317;28;20026;-66
2021/06/03 01:56:07;;;;;;;6.80;3.57;;;;;;;;;;5028249;28;20482;-66
2021/06/03 01:58:33;;;;;;;5.47;3.30;;;;;;;;;;5028248;28;20072;-66
2021/06/03 02:00:59;;;;;;;5.53;3.10;;;;;;;;;;5037235;28;20025;-66
2021/06/03 02:03:25;;;;;;;8.17;3.40;;;;;;;;;;5028656;28;20478;-66
2021/06/03 02:05:50;;;;;;;5.27;3.43;;;;;;;;;;5037007;28;20076;-65
2021/06/03 02:08:16;;;;;;;7.53;3.57;;;;;;;;;;5035108;28;20057;-66
2021/06/03 02:10:42;;;;;;;7.87;3.10;;;;;;;;;;5026143;28;20022;-66
2021/06/03 02:13:34;;;;;;;5.90;3.30;;;;;;;;;;5035520;28;20041;-66
2021/06/03 02:16:04;;;;;;;6.27;3.20;;;;;;;;;;5040861;28;20025;-66
2021/06/03 02:18:32;;;;;;;9.00;4.37;;;;;;;;;;5033174;28;20101;-66
2021/06/03 02:21:02;;;;;;;6.90;3.80;;;;;;;;;;5034859;28;20030;-66
2021/06/03 02:23:27;;;;;;;5.90;3.30;;;;;;;;;;5048859;28;20048;-66
2021/06/03 02:26:00;;;;;;;7.03;3.90;;;;;;;;;;5054132;28;20065;-66
2021/06/03 02:28:26;;;;;;;6.50;3.43;;;;;;;;;;5030343;28;20029;-65
2021/06/03 02:30:53;;;;;;;7.20;3.30;;;;;;;;;;5027213;28;20025;-66
2021/06/03 02:33:19;;;;;;;6.37;3.70;;;;;;;;;;5028197;28;20104;-66
2021/06/03 02:35:45;;;;;;;7.30;3.97;;;;;;;;;;5031993;28;20100;-66
2021/06/03 02:38:10;;;;;;;6.20;3.33;;;;;;;;;;5039947;28;20053;-66
2021/06/03 02:40:35;;;;;;;6.33;3.60;;;;;;;;;;5043266;28;20480;-66
2021/06/03 02:43:01;;;;;;;6.77;3.63;;;;;;;;;;5026833;28;20044;-66
2021/06/03 02:45:30;;;;;;;7.73;3.80;;;;;;;;;;5032284;28;20021;-65
2021/06/03 02:47:55;;;;;;;5.67;3.37;;;;;;;;;;5043405;28;20092;-65
2021/06/03 02:50:22;;;;;;;12.37;3.53;;;;;;;;;;5038890;28;20037;-65
2021/06/03 02:52:47;;;;;;;6.40;4.00;;;;;;;;;;5044860;28;20025;-66
2021/06/03 02:55:14;;;;;;;6.73;4.10;;;;;;;;;;5021955;28;20097;-66
2021/06/03 02:57:39;;;;;;;6.97;3.87;;;;;;;;;;5040390;28;20031;-65
2021/06/03 03:00:07;;;;;;;7.13;3.90;;;;;;;;;;5027120;28;20029;-65
2021/06/03 03:02:32;;;;;;;9.40;4.27;;;;;;;;;;5029978;28;20077;-65
2021/06/03 03:04:57;;;;;;;8.13;3.83;;;;;;;;;;5014626;28;20041;-66
2021/06/03 03:07:22;;;;;;;11.33;3.57;;;;;;;;;;5022045;28;20509;-66
2021/06/03 03:09:48;;;;;;;9.80;3.80;;;;;;;;;;5021471;28;20061;-66
2021/06/03 03:12:13;;;;;;;9.40;3.53;;;;;;;;;;5015942;28;20052;-66
2021/06/03 03:14:38;;;;;;;9.90;4.80;;;;;;;;;;5018008;28;20073;-66
2021/06/03 03:17:04;;;;;;;7.20;3.57;;;;;;;;;;5013968;28;20033;-66
2021/06/03 03:19:29;;;;;;;7.23;3.90;;;;;;;;;;5013918;28;20018;-65
2021/06/03 03:21:55;;;;;;;6.40;3.50;;;;;;;;;;5014520;28;20036;-65
2021/06/03 03:24:20;;;;;;;8.40;3.90;;;;;;;;;;5024496;28;20506;-65
2021/06/03 03:26:46;;;;;;;12.53;4.00;;;;;;;;;;5015325;28;20029;-66
2021/06/03 03:29:11;;;;;;;6.37;3.90;;;;;;;;;;5021468;28;20069;-65
2021/06/03 03:31:36;;;;;;;8.53;4.20;;;;;;;;;;5012885;28;20018;-66
2021/06/03 03:34:05;;;;;;;9.30;4.27;;;;;;;;;;5012635;28;20029;-66
2021/06/03 03:36:30;;;;;;;9.93;4.00;;;;;;;;;;5012518;28;20022;-66
2021/06/03 03:38:56;;;;;;;8.63;4.20;;;;;;;;;;5027024;28;20014;-66
2021/06/03 03:41:22;;;;;;;7.43;4.10;;;;;;;;;;5013853;28;20022;-66
2021/06/03 03:43:47;;;;;;;6.57;3.77;;;;;;;;;;5016927;28;20024;-66
2021/06/03 03:46:12;;;;;;;7.27;4.03;;;;;;;;;;5018250;28;20033;-66
2021/06/03 03:48:37;;;;;;;7.63;4.10;;;;;;;;;;5018696;28;20363;-65
2021/06/03 03:51:03;;;;;;;7.13;4.13;;;;;;;;;;5016872;28;20083;-65
2021/06/03 03:53:28;;;;;;;7.50;3.67;;;;;;;;;;5022157;28;20024;-65
2021/06/03 03:55:54;;;;;;;6.40;3.87;;;;;;;;;;5012837;28;20093;-65
2021/06/03 03:58:19;;;;;;;9.33;3.97;;;;;;;;;;5014195;28;20041;-66
2021/06/03 04:00:45;;;;;;;6.97;3.83;;;;;;;;;;5015912;28;20454;-66
2021/06/03 04:03:10;;;;;;;6.27;3.83;;;;;;;;;;5038831;28;20056;-66
2021/06/03 04:05:35;;;;;;;7.57;3.73;;;;;;;;;;5031676;28;20022;-66
2021/06/03 04:08:01;;;;;;;7.27;3.60;;;;;;;;;;5031254;28;20048;-66
2021/06/03 04:10:27;;;;;;;8.70;3.40;;;;;;;;;;5031564;28;20060;-66
2021/06/03 04:12:52;;;;;;;7.43;3.70;;;;;;;;;;5031892;28;20025;-66
2021/06/03 04:15:18;;;;;;;9.07;3.37;;;;;;;;;;5042381;28;20460;-67
2021/06/03 04:17:44;;;;;;;6.73;3.60;;;;;;;;;;5038914;28;20139;-67
2021/06/03 04:20:11;;;;;;;6.67;3.70;;;;;;;;;;5029018;28;20137;-67
2021/06/03 04:22:36;;;;;;;7.20;3.70;;;;;;;;;;5033577;28;20033;-67
2021/06/03 04:25:04;;;;;;;10.33;3.20;;;;;;;;;;5038458;28;20025;-67
2021/06/03 04:27:29;;;;;;;12.83;3.20;;;;;;;;;;5030192;28;20048;-67
2021/06/03 04:29:54;;;;;;;6.83;3.00;;;;;;;;;;5035897;28;20052;-67
2021/06/03 04:32:20;;;;;;;8.90;3.07;;;;;;;;;;5031596;28;20057;-68
2021/06/03 04:34:45;;;;;;;10.33;3.00;;;;;;;;;;5028079;28;20419;-68
2021/06/03 04:37:11;;;;;;;5.90;2.93;;;;;;;;;;5023267;28;20417;-67
2021/06/03 04:39:36;;;;;;;8.83;2.90;;;;;;;;;;5022284;28;20488;-66
2021/06/03 04:42:02;;;;;;;4.70;2.73;;;;;;;;;;5018289;28;20087;-66
2021/06/03 04:44:27;;;;;;;10.23;3.33;;;;;;;;;;5027001;28;20014;-67
2021/06/03 04:46:52;;;;;;;5.27;3.00;;;;;;;;;;5036711;28;20089;-67
2021/06/03 04:49:18;;;;;;;7.03;3.20;;;;;;;;;;5039149;28;20073;-67
2021/06/03 04:51:43;;;;;;;5.03;2.80;;;;;;;;;;5019262;28;20025;-67
2021/06/03 04:54:09;;;;;;;5.80;3.00;;;;;;;;;;5030306;28;20402;-66
2021/06/03 04:56:34;;;;;;;7.30;2.60;;;;;;;;;;5032493;28;20033;-67
2021/06/03 04:58:59;;;;;;;7.17;3.13;;;;;;;;;;5027392;28;20029;-67
2021/06/03 05:01:25;;;;;;;9.05;3.25;;;;;;;;;;5031710;28;20366;-68
2021/06/03 05:03:50;;;;;;;4.80;2.92;;;;;;;;;;5024671;28;20099;-68
2021/06/03 05:06:16;;;;;;;5.43;2.63;;;;;;;;;;5019794;28;20053;-67
2021/06/03 05:08:41;;;;;;;8.98;3.03;;;;;;;;;;4999434;28;20137;-66
2021/06/03 05:11:06;;;;;;;7.65;2.88;;;;;;;;;;5016003;28;20057;-67
2021/06/03 05:13:32;;;;;;;10.23;3.38;;;;;;;;;;5014710;28;20030;-66
2021/06/03 05:15:58;;;;;;;9.98;2.85;;;;;;;;;;5014798;28;20030;-66
2021/06/03 05:18:23;;;;;;;4.95;2.85;;;;;;;;;;5015012;28;20044;-66
2021/06/03 05:20:49;;;;;;;4.50;2.72;;;;;;;;;;5020230;28;20386;-66
2021/06/03 05:23:14;;;;;;;4.07;2.40;;;;;;;;;;5029631;28;20033;-66
2021/06/03 05:25:39;;;;;;;8.63;3.13;;;;;;;;;;5017524;28;20117;-67
2021/06/03 05:28:05;;;;;;;5.65;3.22;;;;;;;;;;5016860;28;20061;-67
2021/06/03 05:30:31;;;;;;;5.18;2.58;;;;;;;;;;5011673;28;20025;-67
2021/06/03 05:32:57;;;;;;;7.40;3.08;;;;;;;;;;5030489;28;20037;-67
2021/06/03 05:35:23;;;;;;;5.28;2.97;;;;;;;;;;5031096;28;20029;-67
2021/06/03 05:37:49;;;;;;;7.00;2.90;;;;;;;;;;5029619;28;20374;-66
2021/06/03 05:40:17;;;;;;;6.88;2.53;;;;;;;;;;5031307;28;20029;-66
2021/06/03 05:42:43;;;;;;;5.97;2.90;;;;;;;;;;5017549;28;20029;-67
2021/06/03 05:45:09;;;;;;;6.47;3.00;;;;;;;;;;5019658;28;20033;-68
2021/06/03 05:47:37;;;;;;;6.28;3.00;;;;;;;;;;5027741;28;20036;-69
2021/06/03 05:50:07;;;;;;;8.20;2.60;;;;;;;;;;5031009;28;20029;-69
2021/06/03 05:52:33;;;;;;;6.20;2.78;;;;;;;;;;5019776;28;20056;-69
2021/06/03 05:54:59;;;;;;;10.00;2.90;;;;;;;;;;5022113;28;20018;-68
2021/06/03 05:57:25;;;;;;;7.30;3.13;;;;;;;;;;5016952;28;20140;-66
2021/06/03 05:59:51;;;;;;;15.07;3.40;;;;;;;;;;5030956;28;20114;-66
2021/06/03 06:02:22;;;;;;;6.95;3.20;;;;;;;;;;5026547;28;20045;-66
2021/06/03 06:07:32;;;;;;;8.83;3.60;;;;;;;;;;5038103;28;20079;-66
2021/06/03 06:09:58;;;;;;;15.33;3.57;;;;;;;;;;5034439;28;20031;-66
2021/06/03 06:12:24;;;;;;;11.27;3.70;;;;;;;;;;5034273;28;20013;-66
2021/06/03 06:14:49;;;;;;;12.60;4.23;;;;;;;;;;5034670;28;20033;-66
2021/06/03 06:17:17;;;;;;;12.73;4.00;;;;;;;;;;5034120;28;20067;-66
2021/06/03 06:19:42;;;;;;;12.67;4.03;;;;;;;;;;5034090;28;20029;-66
2021/06/03 06:22:11;;;;;;;7.93;3.57;;;;;;;;;;5034518;28;20026;-67
2021/06/03 06:24:37;;;;;;;7.53;3.73;;;;;;;;;;5034495;28;20017;-67
2021/06/03 06:27:03;;;;;;;10.38;3.60;;;;;;;;;;5031382;28;20071;-67
2021/06/03 06:29:28;;;;;;;6.82;3.60;;;;;;;;;;5023379;28;20025;-67
2021/06/03 06:31:54;;;;;;;6.22;3.38;;;;;;;;;;5031490;28;20030;-66
2021/06/03 06:34:19;;;;;;;6.05;3.72;;;;;;;;;;5038509;28;20025;-66
2021/06/03 06:36:44;;;;;;;9.98;3.28;;;;;;;;;;5035042;28;20017;-66
2021/06/03 06:39:10;;;;;;;11.30;3.30;;;;;;;;;;5033442;28;20033;-66
2021/06/03 06:41:40;;;;;;;5.65;3.40;;;;;;;;;;5021456;28;20025;-66
2021/06/03 06:44:06;;;;;;;6.60;3.20;;;;;;;;;;5025423;28;20021;-67
2021/06/03 06:46:31;;;;;;;6.70;2.83;;;;;;;;;;5030689;28;20036;-66
2021/06/03 06:48:57;;;;;;;14.73;3.20;;;;;;;;;;5044049;28;20044;-66
2021/06/03 06:51:22;;;;;;;4.90;2.80;;;;;;;;;;5030201;28;20438;-66
2021/06/03 06:53:47;;;;;;;7.10;2.90;;;;;;;;;;5032432;28;20032;-66
2021/06/03 06:56:13;;;;;;;6.15;2.80;;;;;;;;;;5038883;28;20104;-66
2021/06/03 06:58:39;;;;;;;4.35;2.53;;;;;;;;;;5036002;28;20096;-66
2021/06/03 07:01:04;;;;;;;6.00;2.80;;;;;;;;;;5023559;28;20076;-66
2021/06/03 07:03:29;;;;;;;4.50;2.60;;;;;;;;;;5032004;28;20061;-66
2021/06/03 07:05:55;;;;;;;6.72;3.10;;;;;;;;;;5014162;28;20030;-67
2021/06/03 07:08:20;;;;;;;4.07;2.35;;;;;;;;;;5018149;28;20034;-67
2021/06/03 07:10:46;;;;;;;5.32;2.67;;;;;;;;;;5025189;28;20025;-68
2021/06/03 07:13:11;;;;;;;4.75;2.55;;;;;;;;;;5027633;28;20057;-68
2021/06/03 07:15:36;;;;;;;4.40;2.13;;;;;;;;;;5021401;28;20026;-68
2021/06/03 07:18:02;;;;;;;4.22;2.15;;;;;;;;;;5024787;28;20048;-70
2021/06/03 07:20:27;;;;;;;4.70;2.10;;;;;;;;;;5022488;28;20430;-70
2021/06/03 07:22:53;;;;;;;4.32;2.20;;;;;;;;;;5017616;28;20029;-72
2021/06/03 07:25:20;;;;;;;5.45;1.80;;;;;;;;;;5020858;28;20041;-74
2021/06/03 07:27:46;;;;;;;4.35;1.85;;;;;;;;;;5013421;28;20108;-73
2021/06/03 07:30:13;;;;;;;5.65;2.40;;;;;;;;;;5031474;28;20450;-72
2021/06/03 07:32:39;;;;;;;4.55;2.10;;;;;;;;;;5021562;28;20032;-73
2021/06/03 07:35:09;;;;;;;4.65;1.55;;;;;;;;;;5033456;28;20366;-71
2021/06/03 07:37:34;;;;;;;7.22;2.40;;;;;;;;;;5019344;28;20041;-72
2021/06/03 07:39:59;;;;;;;7.13;1.85;;;;;;;;;;5024278;28;20030;-72
2021/06/03 07:42:25;;;;;;;10.05;1.83;;;;;;;;;;5028621;28;20513;-72
2021/06/03 07:44:50;;;;;;;3.42;1.75;;;;;;;;;;5012482;28;20030;-72
2021/06/03 07:47:16;;;;;;;4.13;1.90;;;;;;;;;;5025330;28;20076;-74
2021/06/03 07:49:42;;;;;;;3.00;1.38;;;;;;;;;;5033224;28;20123;-72
2021/06/03 07:52:08;;;;;;;3.85;1.70;;;;;;;;;;5017859;28;20057;-73
2021/06/03 07:54:33;;;;;;;4.28;1.85;;;;;;;;;;5012878;28;20121;-73
2021/06/03 07:56:58;;;;;;;5.55;1.90;;;;;;;;;;5012542;28;20518;-72
2021/06/03 07:59:24;;;;;;;10.95;2.05;;;;;;;;;;5013471;28;20022;-71
2021/06/03 08:01:50;;;;;;;5.00;1.95;;;;;;;;;;5012871;28;20024;-69
2021/06/03 08:04:15;;;;;;;5.13;1.90;;;;;;;;;;5031149;28;20073;-68
2021/06/03 08:06:40;;;;;;;9.07;1.90;;;;;;;;;;5028155;28;20599;-68
2021/06/03 08:09:06;;;;;;;4.03;2.03;;;;;;;;;;5023834;28;20371;-69
2021/06/03 08:11:31;;;;;;;9.25;2.10;;;;;;;;;;5019053;28;20024;-70
2021/06/03 08:13:57;;;;;;;6.15;2.08;;;;;;;;;;5023017;28;20102;-71
2021/06/03 08:16:22;;;;;;;3.53;1.85;;;;;;;;;;5022970;28;20029;-70
2021/06/03 08:18:48;;;;;;;6.72;2.08;;;;;;;;;;5035103;28;20013;-70
2021/06/03 08:21:13;;;;;;;4.13;1.80;;;;;;;;;;5029141;28;20029;-70
2021/06/03 08:23:38;;;;;;;3.70;1.98;;;;;;;;;;5036769;28;20100;-70
2021/06/03 08:26:04;;;;;;;3.65;1.85;;;;;;;;;;5037097;28;20036;-70
2021/06/03 08:28:29;;;;;;;4.00;2.08;;;;;;;;;;5031069;28;20029;-69
2021/06/03 08:30:56;;;;;;;5.03;1.77;;;;;;;;;;5026196;28;20366;-69
2021/06/03 08:33:22;;;;;;;6.55;2.35;;;;;;;;;;5025599;28;20036;-68
2021/06/03 08:35:47;;;;;;;5.07;2.05;;;;;;;;;;5021521;28;20022;-68
2021/06/03 08:38:13;;;;;;;3.50;1.80;;;;;;;;;;5025110;28;20023;-68
2021/06/03 08:40:40;;;;;;;4.93;2.42;;;;;;;;;;5044594;28;20100;-68
2021/06/03 08:43:06;;;;;;;5.82;2.67;;;;;;;;;;5043704;28;20188;-67
2021/06/03 08:45:33;;;;;;;4.28;2.20;;;;;;;;;;5029089;28;20128;-67
2021/06/03 08:47:58;;;;;;;6.60;2.35;;;;;;;;;;5033549;28;20398;-67
2021/06/03 08:50:25;;;;;;;4.03;2.17;;;;;;;;;;5022613;28;20026;-67
2021/06/03 08:52:53;;;;;;;6.88;2.20;;;;;;;;;;5027383;28;20029;-67
2021/06/03 08:58:07;;;;;;;4.72;2.10;;;;;;;;;;5015013;28;20513;-67
2021/06/03 09:00:33;;;;;;;6.30;2.47;;;;;;;;;;5030382;28;20021;-68
2021/06/03 09:02:59;;;;;;;4.32;2.45;;;;;;;;;;5030801;28;20041;-68
2021/06/03 09:05:25;;;;;;;6.10;2.58;;;;;;;;;;5023951;28;20087;-68
2021/06/03 09:07:50;;;;;;;4.85;2.40;;;;;;;;;;5022985;28;20024;-69
2021/06/03 09:10:32;;;;;;;4.65;2.10;;;;;;;;;;5022581;28;20104;-69
2021/06/03 09:12:57;;;;;;;;;;;;;;;;;;5037864;28;20029;-69
2021/06/03 09:15:23;;;;;;;4.03;2.22;;;;;;;;;;5018376;28;20320;-70
2021/06/03 09:17:48;;;;;;;6.05;2.10;;;;;;;;;;5021639;28;20026;-71
2021/06/03 09:20:14;;;;;;;5.20;2.28;;;;;;;;;;5022528;28;20033;-72
2021/06/03 09:22:40;;;;;;;6.03;2.20;;;;;;;;;;5021339;28;20082;-72
2021/06/03 09:25:24;;;;;;;6.35;2.28;;;;;;;;;;5020414;28;20017;-72
2021/06/03 09:27:49;;;;;;;3.85;1.80;;;;;;;;;;5026002;28;20108;-71
2021/06/03 09:30:15;;;;;;;6.25;2.20;;;;;;;;;;5034868;28;20112;-70
2021/06/03 09:32:50;;;;;;;6.15;1.80;;;;;;;;;;5027762;28;20148;-69
2021/06/03 09:35:16;;;;;;;4.28;1.98;;;;;;;;;;5026241;28;20041;-69
2021/06/03 09:37:42;;;;;;;6.03;1.92;;;;;;;;;;5029108;28;20025;-69
2021/06/03 09:40:18;;;;;;;5.13;2.08;;;;;;;;;;5039853;28;20470;-68
2021/06/03 09:42:44;;;;;;;4.60;1.90;;;;;;;;;;5035861;28;20712;-68
2021/06/03 09:45:10;;;;;;;5.28;2.00;;;;;;;;;;5026510;28;20184;-67
2021/06/03 09:47:39;;;;;;;4.18;2.22;;;;;;;;;;5031881;28;20029;-67
2021/06/03 09:50:07;;;;;;;4.82;2.30;;;;;;;;;;5032722;28;20037;-67
2021/06/03 09:52:33;;;;;;;4.68;2.42;;;;;;;;;;5028155;28;20032;-66
2021/06/03 09:54:59;;;;;;;6.10;2.20;;;;;;;;;;5042583;28;20112;-67
2021/06/03 09:57:29;;;;;;;7.03;2.35;;;;;;;;;;5033238;28;20036;-67
2021/06/03 10:00:04;;;;;;;3.95;2.03;;;;;;;;;;5042255;28;20379;-67
2021/06/03 10:02:33;;;;;;;5.85;2.10;;;;;;;;;;5028362;28;20116;-67
2021/06/03 10:04:59;;;;;;;4.35;2.00;;;;;;;;;;5027109;28;20022;-67
2021/06/03 10:07:28;;;;;;;4.60;2.00;;;;;;;;;;5029407;28;20417;-66
2021/06/03 10:10:10;;;;;;;11.10;2.55;;;;;;;;;;5042487;28;20476;-66
2021/06/03 10:12:37;;;;;;;7.15;1.95;;;;;;;;;;5032814;28;20832;-66
2021/06/03 10:15:10;;;;;;;11.20;2.42;;;;;;;;;;5035757;28;20116;-66
2021/06/03 10:17:40;;;;;;;3.58;1.85;;;;;;;;;;5031615;28;20025;-66
2021/06/03 10:20:10;;;;;;;5.15;2.13;;;;;;;;;;5033465;28;20025;-67
2021/06/03 10:22:39;;;;;;;3.42;1.90;;;;;;;;;;5031158;28;20032;-67
2021/06/03 10:25:12;;;;;;;5.15;1.65;;;;;;;;;;5024301;28;20025;-67
2021/06/03 10:27:57;;;;;;;3.63;1.95;;;;;;;;;;5042850;28;20018;-66
2021/06/03 10:30:28;;;;;;;7.15;2.25;;;;;;;;;;5032195;28;20025;-66
2021/06/03 10:32:55;;;;;;;6.72;2.05;;;;;;;;;;5028668;28;20029;-66
2021/06/03 10:35:22;;;;;;;4.05;1.98;;;;;;;;;;5030380;28;20037;-67
2021/06/03 10:37:48;;;;;;;6.85;1.65;;;;;;;;;;5040712;28;20033;-67
2021/06/03 10:40:15;;;;;;;4.43;2.00;;;;;;;;;;5032834;28;20026;-67
2021/06/03 10:42:41;;;;;;;3.63;1.88;;;;;;;;;;5032811;28;20084;-67
2021/06/03 10:45:07;;;;;;;5.00;2.58;;;;;;;;;;5030253;28;20466;-67
2021/06/03 10:47:32;;;;;;;5.38;1.90;;;;;;;;;;5033895;28;20059;-68
2021/06/03 10:50:00;;;;;;;4.10;2.30;;;;;;;;;;5029539;28;20442;-68
2021/06/03 10:52:25;;;;;;;4.25;1.80;;;;;;;;;;5036485;28;20029;-67
2021/06/03 10:54:54;;;;;;;3.97;1.90;;;;;;;;;;5042822;28;20022;-68
2021/06/03 10:57:21;;;;;;;4.25;1.80;;;;;;;;;;5028956;28;20749;-69
2021/06/03 10:59:48;;;;;;;3.83;1.90;;;;;;;;;;5033125;28;20068;-69
2021/06/03 11:02:13;;;;;;;5.03;2.10;;;;;;;;;;5030457;28;20760;-69
2021/06/03 11:04:39;;;;;;;5.82;2.20;;;;;;;;;;5022726;28;20045;-69
2021/06/03 11:07:05;;;;;;;2.92;1.52;;;;;;;;;;5028156;28;20533;-68
2021/06/03 11:09:35;;;;;;;4.32;1.50;;;;;;;;;;5036622;28;20621;-67
2021/06/03 11:12:32;;;;;;;4.13;1.60;;;;;;;;;;5034034;28;20021;-67
2021/06/03 11:14:59;;;;;;;3.20;1.65;;;;;;;;;;4985036;28;20050;-67
2021/06/03 11:17:47;;;;;;;2.97;1.45;;;;;;;;;;4987157;28;20131;-67
2021/06/03 11:20:12;;;;;;;6.25;1.77;;;;;;;;;;4986880;28;20114;-67
2021/06/03 11:22:37;;;;;;;5.00;2.00;;;;;;;;;;4987007;28;20088;-67
2021/06/03 11:25:04;;;;;;;3.22;1.52;;;;;;;;;;4987308;28;20053;-68
2021/06/03 11:27:40;;;;;;;3.95;1.88;;;;;;;;;;4986934;28;20070;-69
2021/06/03 11:30:10;;;;;;;6.00;1.83;;;;;;;;;;4988676;28;20038;-67
2021/06/03 11:32:39;;;;;;;3.50;1.73;;;;;;;;;;4987892;28;20026;-67
2021/06/03 11:35:06;;;;;;;3.50;1.70;;;;;;;;;;4986955;28;20036;-67
2021/06/03 11:37:49;;;;;;;3.83;2.03;;;;;;;;;;4986967;28;20038;-66
2021/06/03 11:40:20;;;;;;;4.00;1.75;;;;;;;;;;4983883;28;20033;-66
2021/06/03 11:42:49;;;;;;;4.18;1.70;;;;;;;;;;4985260;28;20105;-66
2021/06/03 11:45:35;;;;;;;4.03;2.08;;;;;;;;;;4986901;28;20189;-66
2021/06/03 11:48:05;;;;;;;4.00;2.00;;;;;;;;;;4991864;28;20060;-66
2021/06/03 11:50:35;;;;;;;4.38;1.98;;;;;;;;;;5005976;28;20108;-66
2021/06/03 11:53:04;;;;;;;5.03;2.20;;;;;;;;;;5020835;28;20033;-67
2021/06/03 11:55:53;;;;;;;5.82;2.40;;;;;;;;;;5022188;28;20034;-67
2021/06/03 11:58:47;;;;;;;4.18;1.92;;;;;;;;;;5010111;28;20037;-67
2021/06/03 12:01:30;;;;;;;4.75;2.45;;;;;;;;;;5006844;28;20033;-67
2021/06/03 12:04:07;;;;;;;4.60;2.00;;;;;;;;;;5023281;28;20037;-67
2021/06/03 12:06:36;;;;;;;5.70;2.22;;;;;;;;;;5033097;28;20626;-67
2021/06/03 12:09:14;;;;;;;4.75;2.03;;;;;;;;;;5029501;28;20041;-66
2021/06/03 12:11:44;;;;;;;6.40;2.42;;;;;;;;;;5028871;28;20642;-66
2021/06/03 12:14:30;;;;;;;5.40;2.55;;;;;;;;;;5024926;28;20104;-67
2021/06/03 12:16:56;;;;;;;3.95;1.90;;;;;;;;;;5018612;28;20040;-66
2021/06/03 12:19:23;;;;;;;5.25;2.00;;;;;;;;;;5018618;28;20026;-66
2021/06/03 12:22:08;;;;;;;3.83;2.03;;;;;;;;;;5016748;28;20493;-66
2021/06/03 12:24:44;;;;;;;5.78;1.90;;;;;;;;;;5028194;28;20034;-66
2021/06/03 12:27:23;;;;;;;4.47;1.85;;;;;;;;;;5027545;28;20025;-66
2021/06/03 12:29:49;;;;;;;5.25;2.10;;;;;;;;;;5029074;28;20033;-66
2021/06/03 12:32:15;;;;;;;3.05;1.70;;;;;;;;;;5028840;28;20033;-66
2021/06/03 12:34:40;;;;;;;3.67;1.77;;;;;;;;;;5030473;28;20029;-66
2021/06/03 12:37:23;;;;;;;3.50;1.65;;;;;;;;;;5030789;28;20028;-66
2021/06/03 12:39:48;;;;;;;4.97;1.70;;;;;;;;;;5035585;28;20478;-66
2021/06/03 12:42:17;;;;;;;3.30;1.70;;;;;;;;;;5037544;28;20029;-66
2021/06/03 12:44:51;;;;;;;3.63;1.95;;;;;;;;;;5025806;28;20028;-66
2021/06/03 12:47:16;;;;;;;3.55;1.75;;;;;;;;;;5045502;28;20063;-66
2021/06/03 12:49:42;;;;;;;4.20;2.05;;;;;;;;;;5036726;28;20025;-66
2021/06/03 12:52:08;;;;;;;2.67;1.48;;;;;;;;;;5030712;28;20022;-66
2021/06/03 12:54:44;;;;;;;3.60;1.67;;;;;;;;;;5026546;28;20032;-66
2021/06/03 12:57:14;;;;;;;3.58;1.58;;;;;;;;;;5030373;28;20013;-66
2021/06/03 12:59:40;;;;;;;4.37;1.50;;;;;;;;;;5020876;28;20083;-66
2021/06/03 13:02:06;;;;;;;7.07;1.90;;;;;;;;;;5021934;28;20052;-66
2021/06/03 13:04:34;;;;;;;3.45;1.90;;;;;;;;;;5017559;28;20022;-66
2021/06/03 13:06:59;;;;;;;4.05;1.40;;;;;;;;;;5017502;28;20033;-66
2021/06/03 13:09:24;;;;;;;3.00;1.40;;;;;;;;;;5020862;28;20034;-66
2021/06/03 13:11:50;;;;;;;4.35;2.20;;;;;;;;;;5020729;28;20033;-66
2021/06/03 13:14:23;;;;;;;4.13;1.70;;;;;;;;;;5024199;28;20128;-66
2021/06/03 13:16:51;;;;;;;3.03;1.55;;;;;;;;;;5014380;28;20057;-66
2021/06/03 13:19:20;;;;;;;3.75;1.52;;;;;;;;;;5019531;28;20120;-66
2021/06/03 13:21:49;;;;;;;4.25;1.95;;;;;;;;;;5023860;28;20033;-66
2021/06/03 13:24:19;;;;;;;3.78;1.50;;;;;;;;;;5022351;28;20157;-66
2021/06/03 13:26:44;;;;;;;3.13;1.50;;;;;;;;;;5008424;28;20373;-66
2021/06/03 13:29:10;;;;;;;3.72;1.77;;;;;;;;;;5012702;28;20034;-66
2021/06/03 13:31:39;;;;;;;4.82;1.65;;;;;;;;;;5008779;28;20042;-67
2021/06/03 13:34:22;;;;;;;5.05;1.67;;;;;;;;;;5024475;28;20434;-66
2021/06/03 13:36:57;;;;;;;3.17;1.40;;;;;;;;;;5017829;28;20033;-66
2021/06/03 13:39:29;;;;;;;4.35;1.60;;;;;;;;;;5002548;28;20051;-66
2021/06/03 13:41:56;;;;;;;3.40;1.70;;;;;;;;;;5017962;28;20570;-66
2021/06/03 13:44:22;;;;;;;3.78;1.58;;;;;;;;;;5028107;28;20402;-66
2021/06/03 13:46:47;;;;;;;2.80;1.50;;;;;;;;;;5026886;28;20029;-67
2021/06/03 13:49:24;;;;;;;2.90;1.50;;;;;;;;;;5028148;28;20358;-67
2021/06/03 13:52:02;;;;;;;5.78;1.80;;;;;;;;;;5019810;28;20033;-66
2021/06/03 13:54:27;;;;;;;3.60;1.67;;;;;;;;;;5022965;28;20145;-66
2021/06/03 13:56:53;;;;;;;3.17;1.63;;;;;;;;;;5011852;28;20109;-67
2021/06/03 13:59:18;;;;;;;3.92;1.77;;;;;;;;;;5027983;28;20021;-67
2021/06/03 14:01:47;;;;;;;3.40;1.85;;;;;;;;;;5020629;28;20025;-67
2021/06/03 14:04:15;;;;;;;4.05;1.90;;;;;;;;;;5027937;28;20385;-67
2021/06/03 14:06:43;;;;;;;2.80;1.63;;;;;;;;;;5027637;28;20030;-67
2021/06/03 14:09:37;;;;;;;4.43;2.00;;;;;;;;;;5027798;28;20037;-67
2021/06/03 14:15:06;;;;;;;3.83;1.80;;;;;;;;;;5005907;28;20486;-67
2021/06/03 14:17:35;;;;;;;4.00;1.90;;;;;;;;;;5027661;28;20223;-67
2021/06/03 14:20:02;;;;;;;3.42;2.00;;;;;;;;;;5027637;28;20034;-67
2021/06/03 14:22:36;;;;;;;3.33;1.95;;;;;;;;;;5027872;28;20044;-67
2021/06/03 14:25:04;;;;;;;19.15;1.60;;;;;;;;;;5029354;28;20044;-67
2021/06/03 14:27:37;;;;;;;3.47;1.38;;;;;;;;;;5031006;28;20040;-66
2021/06/03 14:30:26;;;;;;;3.70;1.23;;;;;;;;;;5031150;28;20041;-67
2021/06/03 14:32:58;;;;;;;7.45;1.52;;;;;;;;;;5021113;28;20037;-67
2021/06/03 14:35:43;;;;;;;5.40;2.03;;;;;;;;;;5030837;28;20561;-67
2021/06/03 14:38:10;;;;;;;6.43;1.85;;;;;;;;;;5036609;28;20030;-67
2021/06/03 14:40:43;;;;;;;6.43;1.80;;;;;;;;;;5036469;28;20052;-67
2021/06/03 14:43:20;;;;;;;6.80;2.15;;;;;;;;;;5031345;28;20116;-67
2021/06/03 14:45:46;;;;;;;3.28;1.80;;;;;;;;;;5034054;28;20045;-67
2021/06/03 14:48:15;;;;;;;8.27;2.20;;;;;;;;;;5038990;28;20030;-67
2021/06/03 14:50:42;;;;;;;5.72;1.60;;;;;;;;;;5029011;28;20033;-67
2021/06/03 14:53:08;;;;;;;3.13;1.60;;;;;;;;;;5025206;28;20032;-68
2021/06/03 14:55:35;;;;;;;3.03;1.42;;;;;;;;;;5026652;28;20030;-68